createdAt,value
2024-01-10T00:02:09.492Z,103514.41
2024-01-10T00:04:36.245Z,103502.56
2024-01-10T00:07:02.953Z,103497.06
2024-01-10T00:09:29.552Z,103491.81
2024-01-10T00:11:56.157Z,103500.38
2024-01-10T00:14:25.022Z,103504.78
2024-01-10T00:16:51.687Z,103499.59
2024-01-10T00:19:18.478Z,103494.38
2024-01-10T00:21:45.193Z,103494.19
2024-01-10T00:24:11.787Z,103488.28
2024-01-10T00:26:38.400Z,103486.19
2024-01-10T00:29:05.430Z,103482.69
2024-01-10T00:31:32.449Z,103485.81
2024-01-10T00:33:59.225Z,103475.44
2024-01-10T00:36:26.058Z,103477.25
2024-01-10T00:38:52.681Z,103481.00
2024-01-10T00:41:21.175Z,103470.69
2024-01-10T00:43:48.980Z,103464.50
2024-01-10T00:46:15.566Z,103471.78
2024-01-10T00:48:42.306Z,103471.41
2024-01-10T00:51:13.882Z,103460.75
2024-01-10T00:53:40.573Z,103462.63
2024-01-10T00:56:08.027Z,103462.28
2024-01-10T00:58:34.889Z,103460.34
2024-01-10T01:01:01.671Z,103456.69
2024-01-10T01:03:31.627Z,103460.59
2024-01-10T01:05:58.609Z,103450.78
2024-01-10T01:08:25.404Z,103453.41
2024-01-10T01:10:52.066Z,103456.97
2024-01-10T01:13:22.588Z,103460.19
2024-01-10T01:15:49.208Z,103457.31
2024-01-10T01:18:15.960Z,103469.03
2024-01-10T01:20:42.741Z,103458.38
2024-01-10T01:23:12.052Z,103460.91
2024-01-10T01:25:38.756Z,103465.13
2024-01-10T01:28:05.556Z,103459.81
2024-01-10T01:30:33.035Z,103454.34
2024-01-10T01:32:59.736Z,103459.66
2024-01-10T01:35:26.453Z,103459.56
2024-01-10T01:37:53.309Z,103458.09
2024-01-10T01:40:20.307Z,103459.66
2024-01-10T01:42:47.247Z,103459.41
2024-01-10T01:45:22.735Z,103459.81
2024-01-10T01:47:52.458Z,103456.22
2024-01-10T01:50:19.337Z,103459.56
2024-01-10T01:52:46.284Z,103460.97
2024-01-10T01:55:12.941Z,103456.75
2024-01-10T01:57:40.817Z,103455.19
2024-01-10T02:00:08.049Z,103453.94
2024-01-10T02:02:36.665Z,103442.03
2024-01-10T02:05:05.041Z,103449.94
2024-01-10T02:07:31.736Z,103439.34
2024-01-10T02:09:58.530Z,103449.69
2024-01-10T02:12:25.438Z,103451.38
2024-01-10T02:14:58.310Z,103451.09
2024-01-10T02:17:24.976Z,103449.31
2024-01-10T02:20:11.698Z,103446.44
2024-01-10T02:22:38.409Z,103439.03
2024-01-10T02:25:09.640Z,103437.50
2024-01-10T02:27:37.065Z,103443.22
2024-01-10T02:30:05.025Z,103436.44
2024-01-10T02:32:32.348Z,103430.16
2024-01-10T02:34:59.510Z,103433.03
2024-01-10T02:37:26.237Z,103444.38
2024-01-10T02:40:23.102Z,103433.25
2024-01-10T02:42:40.647Z,103434.81
2024-01-10T02:45:07.651Z,103434.97
2024-01-10T02:47:34.352Z,103436.00
2024-01-10T02:50:01.007Z,103440.09
2024-01-10T02:52:27.594Z,103437.47
2024-01-10T02:54:54.621Z,103437.22
2024-01-10T02:57:23.868Z,103433.81
2024-01-10T02:59:50.515Z,103437.72
2024-01-10T03:02:17.137Z,103437.63
2024-01-10T03:04:45.825Z,103432.16
2024-01-10T03:07:12.628Z,103428.38
2024-01-10T03:09:39.227Z,103423.31
2024-01-10T03:12:05.851Z,103423.84
2024-01-10T03:14:34.376Z,103420.19
2024-01-10T03:17:02.046Z,103417.28
2024-01-10T03:19:28.723Z,103420.19
2024-01-10T03:21:55.325Z,103409.03
2024-01-10T03:24:25.179Z,103413.72
2024-01-10T03:26:51.790Z,103404.63
2024-01-10T03:29:18.464Z,103410.75
2024-01-10T03:31:45.145Z,103403.59
2024-01-10T03:34:11.776Z,103399.78
2024-01-10T03:36:38.517Z,103396.84
2024-01-10T03:39:05.353Z,103391.63
2024-01-10T03:41:31.942Z,103392.84
2024-01-10T03:44:04.436Z,103397.69
2024-01-10T03:46:31.048Z,103381.09
2024-01-10T03:48:58.295Z,103391.50
2024-01-10T03:51:24.930Z,103396.94
2024-01-10T03:53:52.091Z,103395.00
2024-01-10T03:56:19.134Z,103387.72
2024-01-10T03:58:45.892Z,103384.69
2024-01-10T04:01:13.847Z,103379.28
2024-01-10T04:03:43.406Z,103380.31
2024-01-10T04:06:10.100Z,103384.38
2024-01-10T04:08:36.855Z,103393.44
2024-01-10T04:11:04.694Z,103380.75
2024-01-10T04:13:31.327Z,103381.47
2024-01-10T04:16:11.689Z,103384.97
2024-01-10T04:18:38.443Z,103395.75
2024-01-10T04:21:05.252Z,103385.75
2024-01-10T04:23:34.361Z,103383.69
2024-01-10T04:26:03.058Z,103381.81
2024-01-10T04:28:29.674Z,103378.78
2024-01-10T04:30:56.357Z,103384.22
2024-01-10T04:33:23.060Z,103377.50
2024-01-10T04:35:49.806Z,103388.66
2024-01-10T04:38:16.615Z,103378.22
2024-01-10T04:40:43.337Z,103364.44
2024-01-10T04:43:09.946Z,103361.69
2024-01-10T04:45:36.605Z,103367.16
2024-01-10T04:48:03.385Z,103355.69
2024-01-10T04:50:30.099Z,103366.16
2024-01-10T04:52:56.751Z,103369.38
2024-01-10T04:55:25.493Z,103372.28
2024-01-10T04:57:52.106Z,103371.19
2024-01-10T05:00:21.783Z,103360.22
2024-01-10T05:02:49.152Z,103358.44
2024-01-10T05:05:17.160Z,103361.19
2024-01-10T05:07:46.640Z,103357.69
2024-01-10T05:10:13.395Z,103358.88
2024-01-10T05:12:40.036Z,103359.59
2024-01-10T05:15:07.594Z,103355.97
2024-01-10T05:17:34.727Z,103358.53
2024-01-10T05:20:02.399Z,103358.88
2024-01-10T05:22:29.020Z,103355.97
2024-01-10T05:24:55.621Z,103348.72
2024-01-10T05:27:22.213Z,103355.19
2024-01-10T05:29:49.732Z,103352.06
2024-01-10T05:32:16.378Z,103350.63
2024-01-10T05:34:43.086Z,103359.72
2024-01-10T05:37:09.713Z,103354.75
2024-01-10T05:39:36.402Z,103357.47
2024-01-10T05:42:06.396Z,103349.31
2024-01-10T05:44:33.345Z,103347.53
2024-01-10T05:47:00.798Z,103354.66
2024-01-10T05:49:27.989Z,103352.59
2024-01-10T05:51:54.598Z,103347.25
2024-01-10T05:54:21.251Z,103353.78
2024-01-10T05:56:56.013Z,103355.88
2024-01-10T05:59:22.709Z,103351.91
2024-01-10T06:01:52.443Z,103345.03
2024-01-10T06:04:19.223Z,103349.41
2024-01-10T06:06:47.190Z,103346.47
2024-01-10T06:09:22.945Z,103343.91
2024-01-10T06:11:49.900Z,103344.69
2024-01-10T06:14:19.636Z,103356.94
2024-01-10T06:16:48.661Z,103348.81
2024-01-10T06:19:17.389Z,103349.28
2024-01-10T06:21:44.117Z,103350.13
2024-01-10T06:24:10.714Z,103358.44
2024-01-10T06:26:37.368Z,103354.16
2024-01-10T06:29:04.003Z,103352.47
2024-01-10T06:31:30.623Z,103346.53
2024-01-10T06:33:57.307Z,103346.28
2024-01-10T06:36:28.940Z,103351.84
2024-01-10T06:38:55.858Z,103339.97
2024-01-10T06:41:28.383Z,103346.88
2024-01-10T06:43:57.757Z,103341.56
2024-01-10T06:46:25.614Z,103344.78
2024-01-10T06:48:54.651Z,103339.09
2024-01-10T06:51:21.278Z,103349.97
2024-01-10T06:53:47.867Z,103349.97
2024-01-10T06:56:14.477Z,103351.94
2024-01-10T06:58:42.647Z,103355.69
2024-01-10T07:01:14.831Z,103355.97
2024-01-10T07:03:46.140Z,103344.94
2024-01-10T07:06:16.397Z,103353.63
2024-01-10T07:08:44.616Z,103360.78
2024-01-10T07:11:14.229Z,103349.16
2024-01-10T07:13:42.983Z,103361.81
2024-01-10T07:16:10.549Z,103361.03
2024-01-10T07:18:40.230Z,103355.69
2024-01-10T07:21:10.317Z,103363.25
2024-01-10T07:23:39.414Z,103365.41
2024-01-10T07:26:06.751Z,103353.28
2024-01-10T07:28:33.901Z,103363.66
2024-01-10T07:31:05.658Z,103362.91
2024-01-10T07:33:38.405Z,103367.94
2024-01-10T07:36:05.323Z,103352.16
2024-01-10T07:38:32.005Z,103353.25
2024-01-10T07:41:00.537Z,103357.22
2024-01-10T07:43:28.228Z,103358.19
2024-01-10T07:45:57.728Z,103366.13
2024-01-10T07:48:25.187Z,103368.75
2024-01-10T07:50:51.825Z,103370.31
2024-01-10T07:53:18.476Z,103378.75
2024-01-10T07:55:45.134Z,103375.66
2024-01-10T07:58:11.767Z,103380.78
2024-01-10T08:00:39.587Z,103382.34
2024-01-10T08:03:06.226Z,103381.00
2024-01-10T08:05:33.092Z,103383.72
2024-01-10T08:07:59.971Z,103389.81
2024-01-10T08:10:28.324Z,103381.81
2024-01-10T08:12:55.784Z,103386.66
2024-01-10T08:15:24.948Z,103388.41
2024-01-10T08:17:52.197Z,103388.34
2024-01-10T08:20:22.361Z,103384.06
2024-01-10T08:22:54.715Z,103383.91
2024-01-10T08:25:23.361Z,103380.09
2024-01-10T08:27:50.287Z,103378.78
2024-01-10T08:30:16.951Z,103375.78
2024-01-10T08:32:43.810Z,103368.53
2024-01-10T08:35:13.411Z,103364.31
2024-01-10T08:37:43.590Z,103360.50
2024-01-10T08:40:18.964Z,103361.91
2024-01-10T08:42:45.581Z,103361.63
2024-01-10T08:45:12.659Z,103361.34
2024-01-10T08:47:39.516Z,103368.03
2024-01-10T08:50:10.113Z,103362.59
2024-01-10T08:52:41.248Z,103370.94
2024-01-10T08:55:13.632Z,103374.31
2024-01-10T08:57:41.119Z,103375.25
2024-01-10T09:00:08.647Z,103372.53
2024-01-10T09:02:38.051Z,103365.38
2024-01-10T09:05:07.875Z,103364.25
2024-01-10T09:07:34.539Z,103369.41
2024-01-10T09:10:01.137Z,103370.81
2024-01-10T09:12:27.854Z,103364.88
2024-01-10T09:14:54.816Z,103384.75
2024-01-10T09:17:21.539Z,103369.09
2024-01-10T09:19:48.282Z,103374.94
2024-01-10T09:22:14.920Z,103383.19
2024-01-10T09:24:44.129Z,103382.00
2024-01-10T09:27:10.873Z,103390.00
2024-01-10T09:29:37.527Z,103379.34
2024-01-10T09:32:04.772Z,103379.47
2024-01-10T09:34:31.742Z,103372.44
2024-01-10T09:36:58.371Z,103369.06
2024-01-10T09:39:24.967Z,103360.69
2024-01-10T09:41:53.377Z,103359.63
2024-01-10T09:44:22.676Z,103360.53
2024-01-10T09:46:52.609Z,103363.97
2024-01-10T09:49:22.250Z,103358.88
2024-01-10T09:52:03.250Z,103355.81
2024-01-10T09:54:32.753Z,103347.22
2024-01-10T09:57:01.529Z,103363.63
2024-01-10T09:59:28.485Z,103374.06
2024-01-10T10:01:56.816Z,103359.94
2024-01-10T10:04:27.315Z,103370.97
2024-01-10T10:07:05.246Z,103367.47
2024-01-10T10:09:32.280Z,103368.09
2024-01-10T10:11:59.041Z,103362.13
2024-01-10T10:14:27.343Z,103358.28
2024-01-10T10:16:54.266Z,103364.22
2024-01-10T10:19:34.686Z,103363.53
2024-01-10T10:22:11.872Z,103361.13
2024-01-10T10:24:40.250Z,103360.22
2024-01-10T10:27:10.593Z,103351.19
2024-01-10T10:29:38.435Z,103352.84
2024-01-10T10:32:07.494Z,103347.13
2024-01-10T10:34:34.935Z,103345.69
2024-01-10T10:37:02.227Z,103343.50
2024-01-10T10:39:28.819Z,103339.97
2024-01-10T10:41:55.923Z,103352.28
2024-01-10T10:44:25.529Z,103355.66
2024-01-10T10:47:05.414Z,103352.06
2024-01-10T10:49:36.270Z,103353.00
2024-01-10T10:52:03.345Z,103359.75
2024-01-10T10:54:33.945Z,103349.31
2024-01-10T10:57:03.154Z,103354.38
2024-01-10T10:59:30.481Z,103344.88
2024-01-10T11:01:57.169Z,103343.88
2024-01-10T11:04:25.893Z,103345.78
2024-01-10T11:06:57.764Z,103339.59
2024-01-10T11:09:25.047Z,103347.59
2024-01-10T11:12:17.309Z,103339.53
2024-01-10T11:15:04.097Z,103346.53
2024-01-10T11:17:42.679Z,103341.28
2024-01-10T11:20:13.288Z,103342.16
2024-01-10T11:22:55.076Z,103343.38
2024-01-10T11:25:21.804Z,103341.56
2024-01-10T11:28:02.938Z,103337.25
2024-01-10T11:30:34.330Z,103329.47
2024-01-10T11:33:20.900Z,103330.53
2024-01-10T11:36:13.621Z,103333.00
2024-01-10T11:39:08.823Z,103323.97
2024-01-10T11:41:37.141Z,103330.41
2024-01-10T11:44:09.853Z,103325.47
2024-01-10T11:46:40.343Z,103328.06
2024-01-10T11:49:10.734Z,103326.47
2024-01-10T11:51:40.351Z,103318.66
2024-01-10T11:54:07.075Z,103321.94
2024-01-10T11:56:43.527Z,103318.50
2024-01-10T11:59:17.062Z,103306.31
2024-01-10T12:01:43.843Z,103302.97
2024-01-10T12:04:18.163Z,103310.53
2024-01-10T12:06:50.996Z,103313.34
2024-01-10T12:09:17.800Z,103301.91
2024-01-10T12:11:44.401Z,103298.53
2024-01-10T12:14:14.042Z,103300.66
2024-01-10T12:16:46.485Z,103296.41
2024-01-10T12:19:13.239Z,103287.84
2024-01-10T12:21:40.297Z,103297.72
2024-01-10T12:24:07.279Z,103293.59
2024-01-10T12:26:34.314Z,103298.31
2024-01-10T12:29:01.428Z,103295.81
2024-01-10T12:31:28.494Z,103285.41
2024-01-10T12:33:56.888Z,103290.09
2024-01-10T12:36:23.683Z,103286.47
2024-01-10T12:38:51.191Z,103280.13
2024-01-10T12:41:19.030Z,103278.47
2024-01-10T12:43:56.568Z,103275.03
2024-01-10T12:46:26.831Z,103283.94
2024-01-10T12:49:06.277Z,103283.00
2024-01-10T12:51:34.585Z,103281.19
2024-01-10T12:54:02.235Z,103277.47
2024-01-10T12:56:29.652Z,103274.75
2024-01-10T12:58:57.319Z,103277.03
2024-01-10T13:01:24.855Z,103274.09
2024-01-10T13:03:52.061Z,103267.59
2024-01-10T13:06:20.055Z,103265.81
2024-01-10T13:08:47.186Z,103268.22
2024-01-10T13:11:15.277Z,103272.56
2024-01-10T13:13:44.227Z,103269.81
2024-01-10T13:16:11.680Z,103270.78
2024-01-10T13:18:39.601Z,103258.06
2024-01-10T13:21:07.193Z,103258.63
2024-01-10T13:23:34.725Z,103261.22
2024-01-10T13:26:02.350Z,103256.47
2024-01-10T13:28:29.172Z,103258.19
2024-01-10T13:30:58.936Z,103249.91
2024-01-10T13:33:26.992Z,103255.09
2024-01-10T13:35:54.390Z,103263.06
2024-01-10T13:38:21.450Z,103264.75
2024-01-10T13:40:48.225Z,103267.28
2024-01-10T13:43:16.830Z,103274.38
2024-01-10T13:45:44.144Z,103266.25
2024-01-10T13:48:11.643Z,103267.84
2024-01-10T13:50:38.543Z,103269.75
2024-01-10T13:53:05.931Z,103266.13
2024-01-10T13:55:33.333Z,103271.38
2024-01-10T13:58:00.023Z,103278.53
2024-01-10T14:00:26.926Z,103264.31
2024-01-10T14:02:59.771Z,103264.13
2024-01-10T14:05:29.496Z,103261.59
2024-01-10T14:07:58.098Z,103270.47
2024-01-10T14:10:25.425Z,103257.16
2024-01-10T14:12:52.549Z,103251.81
2024-01-10T14:15:19.484Z,103253.63
2024-01-10T14:17:50.245Z,103253.81
2024-01-10T14:20:17.093Z,103250.28
2024-01-10T14:22:43.938Z,103257.34
2024-01-10T14:25:11.013Z,103267.16
2024-01-10T14:27:39.750Z,103252.19
2024-01-10T14:30:09.641Z,103247.63
2024-01-10T14:32:37.206Z,103251.38
2024-01-10T14:35:06.382Z,103252.53
2024-01-10T14:37:33.497Z,103255.19
2024-01-10T14:40:00.322Z,103248.03
2024-01-10T14:42:27.015Z,103237.34
2024-01-10T14:44:53.699Z,103237.09
2024-01-10T14:47:21.390Z,103237.06
2024-01-10T14:49:48.805Z,103237.06
2024-01-10T14:52:15.514Z,103230.81
2024-01-10T14:54:42.319Z,103224.47
2024-01-10T14:57:08.981Z,103228.00
2024-01-10T14:59:45.474Z,103235.91
2024-01-10T15:02:14.044Z,103240.34
2024-01-10T15:04:41.497Z,103238.34
2024-01-10T15:07:08.495Z,103238.34
2024-01-10T15:09:37.822Z,103234.59
2024-01-10T15:12:10.870Z,103239.88
2024-01-10T15:14:40.265Z,103241.50
2024-01-10T15:17:11.313Z,103244.94
2024-01-10T15:19:39.184Z,103245.72
2024-01-10T15:22:06.453Z,103255.47
2024-01-10T15:24:33.696Z,103254.41
2024-01-10T15:27:08.219Z,103256.94
2024-01-10T15:29:34.939Z,103260.31
2024-01-10T15:32:02.114Z,103265.75
2024-01-10T15:34:29.126Z,103265.72
2024-01-10T15:36:55.825Z,103263.84
2024-01-10T15:39:22.714Z,103261.09
2024-01-10T15:41:50.179Z,103263.66
2024-01-10T15:44:18.175Z,103267.13
2024-01-10T15:46:44.999Z,103270.63
2024-01-10T15:49:12.556Z,103269.75
2024-01-10T15:51:39.177Z,103268.81
2024-01-10T15:54:06.429Z,103267.09
2024-01-10T15:56:34.677Z,103268.81
2024-01-10T15:59:01.502Z,103276.94
2024-01-10T16:01:28.288Z,103273.25
2024-01-10T16:03:55.056Z,103274.13
2024-01-10T16:06:22.156Z,103273.22
2024-01-10T16:08:48.858Z,103280.16
2024-01-10T16:11:15.556Z,103283.81
2024-01-10T16:13:42.239Z,103274.91
2024-01-10T16:16:10.467Z,103277.59
2024-01-10T16:18:39.974Z,103281.00
2024-01-10T16:21:06.603Z,103275.56
2024-01-10T16:23:33.584Z,103279.78
2024-01-10T16:26:00.431Z,103280.53
2024-01-10T16:28:29.520Z,103274.88
2024-01-10T16:30:56.674Z,103282.72
2024-01-10T16:33:24.401Z,103276.47
2024-01-10T16:35:51.374Z,103269.81
2024-01-10T16:38:18.397Z,103278.75
2024-01-10T16:40:45.224Z,103277.97
2024-01-10T16:43:12.042Z,103279.09
2024-01-10T16:45:38.686Z,103279.00
2024-01-10T16:48:05.927Z,103274.81
2024-01-10T16:50:32.900Z,103273.00
2024-01-10T16:53:00.047Z,103277.41
2024-01-10T16:55:27.659Z,103272.81
2024-01-10T16:57:55.345Z,103278.06
2024-01-10T17:00:22.802Z,103277.97
2024-01-10T17:02:49.997Z,103282.22
2024-01-10T17:05:16.834Z,103279.28
2024-01-10T17:07:44.069Z,103283.59
2024-01-10T17:10:10.825Z,103278.97
2024-01-10T17:12:37.856Z,103289.59
2024-01-10T17:15:06.144Z,103285.88
2024-01-10T17:17:32.853Z,103276.69
2024-01-10T17:20:00.112Z,103284.50
2024-01-10T17:22:27.002Z,103280.97
2024-01-10T17:24:53.658Z,103287.16
2024-01-10T17:27:20.430Z,103292.50
2024-01-10T17:29:47.051Z,103292.50
2024-01-10T17:32:13.738Z,103287.25
2024-01-10T17:34:40.470Z,103292.78
2024-01-10T17:37:07.096Z,103300.06
2024-01-10T17:39:34.161Z,103296.53
2024-01-10T17:42:00.770Z,103308.31
2024-01-10T17:44:27.514Z,103303.75
2024-01-10T17:46:54.238Z,103300.16
2024-01-10T17:49:20.923Z,103304.78
2024-01-10T17:51:47.581Z,103294.81
2024-01-10T17:54:14.203Z,103293.03
2024-01-10T17:56:40.996Z,103301.03
2024-01-10T17:59:08.100Z,103301.06
2024-01-10T18:01:35.010Z,103300.81
2024-01-10T18:04:07.765Z,103294.59
2024-01-10T18:06:40.329Z,103308.13
2024-01-10T18:09:08.094Z,103309.91
2024-01-10T18:11:34.959Z,103316.13
2024-01-10T18:14:01.793Z,103316.13
2024-01-10T18:16:30.196Z,103305.50
2024-01-10T18:18:56.824Z,103310.75
2024-01-10T18:21:23.492Z,103315.78
2024-01-10T18:23:50.177Z,103315.06
2024-01-10T18:26:17.275Z,103316.56
2024-01-10T18:28:45.105Z,103319.28
2024-01-10T18:31:11.767Z,103322.88
2024-01-10T18:33:38.494Z,103333.59
2024-01-10T18:36:05.258Z,103320.91
2024-01-10T18:38:32.336Z,103322.84
2024-01-10T18:40:59.074Z,103315.47
2024-01-10T18:43:25.723Z,103331.78
2024-01-10T18:45:52.422Z,103327.94
2024-01-10T18:48:21.194Z,103333.41
2024-01-10T18:50:48.275Z,103338.94
2024-01-10T18:53:16.297Z,103336.03
2024-01-10T18:55:43.016Z,103334.28
2024-01-10T18:58:11.659Z,103329.88
2024-01-10T19:00:39.074Z,103334.38
2024-01-10T19:03:05.902Z,103338.53
2024-01-10T19:05:32.785Z,103336.91
2024-01-10T19:07:59.801Z,103347.38
2024-01-10T19:10:26.483Z,103338.38
2024-01-10T19:12:53.145Z,103348.97
2024-01-10T19:15:19.785Z,103347.38
2024-01-10T19:17:46.442Z,103345.44
2024-01-10T19:20:13.232Z,103350.63
2024-01-10T19:22:43.055Z,103357.81
2024-01-10T19:25:09.800Z,103356.84
2024-01-10T19:27:36.498Z,103348.78
2024-01-10T19:30:06.146Z,103359.50
2024-01-10T19:32:34.456Z,103368.38
2024-01-10T19:35:01.571Z,103363.00
2024-01-10T19:37:30.517Z,103356.97
2024-01-10T19:39:59.676Z,103358.63
2024-01-10T19:42:28.357Z,103362.81
2024-01-10T19:44:58.410Z,103362.94
2024-01-10T19:47:25.289Z,103366.63
2024-01-10T19:49:52.161Z,103371.56
2024-01-10T19:52:18.808Z,103375.25
2024-01-10T19:54:45.452Z,103375.31
2024-01-10T19:57:12.060Z,103371.22
2024-01-10T20:02:23.282Z,103371.22
2024-01-10T20:04:50.403Z,103381.19
2024-01-10T20:07:18.708Z,103383.50
2024-01-10T20:09:48.163Z,103376.47
2024-01-10T20:12:15.419Z,103371.00
2024-01-10T20:14:42.183Z,103371.00
2024-01-10T20:17:09.026Z,103382.94
2024-01-10T20:19:35.954Z,103376.47
2024-01-10T20:22:02.701Z,103378.16
2024-01-10T20:24:29.288Z,103371.94
2024-01-10T20:26:56.291Z,103374.44
2024-01-10T20:29:23.005Z,103372.56
2024-01-10T20:31:49.674Z,103379.41
2024-01-10T20:34:16.981Z,103382.31
2024-01-10T20:36:46.610Z,103379.41
2024-01-10T20:39:14.147Z,103382.94
2024-01-10T20:41:41.342Z,103380.22
2024-01-10T20:44:08.635Z,103378.56
2024-01-10T20:46:38.065Z,103393.50
2024-01-10T20:49:06.628Z,103385.41
2024-01-10T20:51:34.448Z,103392.56
2024-01-10T20:54:01.127Z,103393.38
2024-01-10T20:56:29.245Z,103402.44
2024-01-10T20:58:55.905Z,103398.00
2024-01-10T21:01:23.939Z,103397.00
2024-01-10T21:03:50.663Z,103396.97
2024-01-10T21:06:19.830Z,103395.06
2024-01-10T21:08:47.013Z,103395.06
2024-01-10T21:11:13.684Z,103398.69
2024-01-10T21:13:42.378Z,103398.59
2024-01-10T21:16:09.018Z,103395.19
2024-01-10T21:18:36.513Z,103401.97
2024-01-10T21:21:04.432Z,103398.34
2024-01-10T21:23:34.316Z,103390.28
2024-01-10T21:26:00.997Z,103391.22
2024-01-10T21:28:33.357Z,103388.41
2024-01-10T21:31:02.506Z,103390.97
2024-01-10T21:33:29.292Z,103386.50
2024-01-10T21:35:57.188Z,103387.34
2024-01-10T21:38:23.881Z,103386.59
2024-01-10T21:40:50.595Z,103401.66
2024-01-10T21:43:17.207Z,103412.31
2024-01-10T21:45:43.818Z,103413.06
2024-01-10T21:48:10.530Z,103416.66
2024-01-10T21:50:37.288Z,103418.34
2024-01-10T21:53:04.201Z,103425.31
2024-01-10T21:55:30.856Z,103426.25
2024-01-10T21:57:58.301Z,103429.63
2024-01-10T22:00:26.528Z,103419.09
2024-01-10T22:02:57.077Z,103430.56
2024-01-10T22:05:25.656Z,103429.63
2024-01-10T22:07:52.800Z,103442.25
2024-01-10T22:10:19.459Z,103445.63
2024-01-10T22:12:46.196Z,103440.03
2024-01-10T22:15:13.224Z,103445.50
2024-01-10T22:17:44.715Z,103449.13
2024-01-10T22:20:15.432Z,103453.56
2024-01-10T22:22:42.396Z,103457.97
2024-01-10T22:25:09.232Z,103457.13
2024-01-10T22:27:36.923Z,103459.63
2024-01-10T22:30:03.650Z,103461.44
2024-01-10T22:32:30.494Z,103460.63
2024-01-10T22:34:57.213Z,103457.88
2024-01-10T22:37:23.825Z,103470.09
2024-01-10T22:39:51.233Z,103466.47
2024-01-10T22:42:18.623Z,103466.69
2024-01-10T22:44:45.242Z,103463.97
2024-01-10T22:47:11.888Z,103461.13
2024-01-10T22:49:38.477Z,103457.47
2024-01-10T22:52:06.479Z,103459.19
2024-01-10T22:54:33.140Z,103460.97
2024-01-10T22:56:59.749Z,103453.88
2024-01-10T22:59:26.368Z,103462.81
2024-01-10T23:01:54.066Z,103466.06
2024-01-10T23:04:20.761Z,103458.06
2024-01-10T23:06:47.351Z,103455.41
2024-01-10T23:09:15.862Z,103462.28
2024-01-10T23:11:42.942Z,103470.63
2024-01-10T23:14:10.514Z,103466.81
2024-01-10T23:16:37.167Z,103462.16
2024-01-10T23:19:04.483Z,103453.47
2024-01-10T23:21:35.560Z,103469.47
2024-01-10T23:24:04.066Z,103457.88
2024-01-10T23:26:30.942Z,103453.63
2024-01-10T23:28:57.587Z,103450.72
2024-01-10T23:31:24.216Z,103455.31
2024-01-10T23:33:50.941Z,103453.19
2024-01-10T23:36:17.579Z,103460.34
2024-01-10T23:38:44.271Z,103468.09
2024-01-10T23:41:10.887Z,103464.63
2024-01-10T23:43:37.559Z,103460.09
2024-01-10T23:46:04.235Z,103464.63
2024-01-10T23:48:30.970Z,103459.16
2024-01-10T23:50:58.813Z,103457.53
2024-01-10T23:53:26.326Z,103465.28
2024-01-10T23:55:54.431Z,103460.84
2024-01-10T23:58:21.198Z,103467.84
